Elk Horn, Idaho
Current Conditions -  °F | °C
As of 4:47 PM on Saturday 25 Oct 2014 (Local Time) from KSUN Reporting Station
Broken Clouds Broken Clouds  
Wind Chill: 63°   Ceiling: 12000
Heat Index: 63°   Visibility: 10mi
Dew Point: 36°   Wind: 0mph
Humidity: 37%   Direction: NA
Pressure: 29.9"   Gusts: NA
Location:  43.6966°N, 114.35°W
Report Text: KSUN 252247Z 00000KT 10SM BKN120 BKN150 17/02 A2990
Loading
Personal Weather Stations






























Interactive Weather Map
Tropical Storm Tracking
New forecast layout! Learn more

10-Day Weather Forecast

Advertisements
Track Severe Weather on mobile